sensor_id;sensor_type;location;lat;lon;timestamp;P1;durP1;ratioP1;P2;durP2;ratioP2
50012;SDS011;35901;48.694;9.476;2023-05-07T00:00:02;4.63;;;4.23;;
50012;SDS011;35901;48.694;9.476;2023-05-07T00:02:33;5.13;;;4.27;;
50012;SDS011;35901;48.694;9.476;2023-05-07T00:04:59;5.47;;;4.97;;
50012;SDS011;35901;48.694;9.476;2023-05-07T00:07:25;4.63;;;4.23;;
50012;SDS011;35901;48.694;9.476;2023-05-07T00:09:50;5.67;;;4.40;;
50012;SDS011;35901;48.694;9.476;2023-05-07T00:12:16;5.53;;;5.03;;
50012;SDS011;35901;48.694;9.476;2023-05-07T00:14:42;6.03;;;4.70;;
50012;SDS011;35901;48.694;9.476;2023-05-07T00:17:07;4.10;;;3.80;;
50012;SDS011;35901;48.694;9.476;2023-05-07T00:19:33;5.00;;;4.60;;
50012;SDS011;35901;48.694;9.476;2023-05-07T00:21:59;6.23;;;5.50;;
50012;SDS011;35901;48.694;9.476;2023-05-07T00:24:24;5.13;;;4.73;;
50012;SDS011;35901;48.694;9.476;2023-05-07T00:26:50;5.70;;;5.13;;
50012;SDS011;35901;48.694;9.476;2023-05-07T00:29:16;5.23;;;4.73;;
50012;SDS011;35901;48.694;9.476;2023-05-07T00:31:41;5.53;;;4.97;;
50012;SDS011;35901;48.694;9.476;2023-05-07T00:34:07;6.10;;;4.90;;
50012;SDS011;35901;48.694;9.476;2023-05-07T00:36:33;6.30;;;5.40;;
50012;SDS011;35901;48.694;9.476;2023-05-07T00:38:59;5.93;;;5.33;;
50012;SDS011;35901;48.694;9.476;2023-05-07T00:41:28;6.67;;;5.33;;
50012;SDS011;35901;48.694;9.476;2023-05-07T00:43:56;6.37;;;5.27;;
50012;SDS011;35901;48.694;9.476;2023-05-07T00:46:22;5.23;;;4.77;;
50012;SDS011;35901;48.694;9.476;2023-05-07T00:48:49;4.80;;;4.40;;
50012;SDS011;35901;48.694;9.476;2023-05-07T00:51:16;8.03;;;4.80;;
50012;SDS011;35901;48.694;9.476;2023-05-07T00:53:42;5.00;;;4.50;;
50012;SDS011;35901;48.694;9.476;2023-05-07T00:56:08;5.23;;;4.73;;
50012;SDS011;35901;48.694;9.476;2023-05-07T00:58:35;5.30;;;4.80;;
50012;SDS011;35901;48.694;9.476;2023-05-07T01:01:01;5.70;;;5.20;;
50012;SDS011;35901;48.694;9.476;2023-05-07T01:03:27;5.87;;;4.97;;
50012;SDS011;35901;48.694;9.476;2023-05-07T01:05:53;7.13;;;5.20;;
50012;SDS011;35901;48.694;9.476;2023-05-07T01:08:22;5.47;;;4.93;;
50012;SDS011;35901;48.694;9.476;2023-05-07T01:10:51;5.10;;;4.70;;
50012;SDS011;35901;48.694;9.476;2023-05-07T01:13:18;4.57;;;4.17;;
50012;SDS011;35901;48.694;9.476;2023-05-07T01:15:44;4.83;;;4.43;;
50012;SDS011;35901;48.694;9.476;2023-05-07T01:18:10;5.47;;;5.07;;
50012;SDS011;35901;48.694;9.476;2023-05-07T01:20:36;7.83;;;4.90;;
50012;SDS011;35901;48.694;9.476;2023-05-07T01:23:02;5.80;;;4.77;;
50012;SDS011;35901;48.694;9.476;2023-05-07T01:25:29;5.40;;;4.43;;
50012;SDS011;35901;48.694;9.476;2023-05-07T01:27:58;4.97;;;4.57;;
50012;SDS011;35901;48.694;9.476;2023-05-07T01:30:29;5.60;;;4.93;;
50012;SDS011;35901;48.694;9.476;2023-05-07T01:33:04;5.10;;;4.70;;
50012;SDS011;35901;48.694;9.476;2023-05-07T01:35:37;5.13;;;4.63;;
50012;SDS011;35901;48.694;9.476;2023-05-07T01:38:05;8.33;;;5.10;;
50012;SDS011;35901;48.694;9.476;2023-05-07T01:40:33;6.03;;;4.67;;
50012;SDS011;35901;48.694;9.476;2023-05-07T01:43:00;4.80;;;4.23;;
50012;SDS011;35901;48.694;9.476;2023-05-07T01:45:28;5.00;;;4.60;;
50012;SDS011;35901;48.694;9.476;2023-05-07T01:47:57;5.20;;;4.70;;
50012;SDS011;35901;48.694;9.476;2023-05-07T01:50:24;5.03;;;4.53;;
50012;SDS011;35901;48.694;9.476;2023-05-07T01:52:51;5.37;;;4.87;;
50012;SDS011;35901;48.694;9.476;2023-05-07T01:55:17;6.13;;;5.40;;
50012;SDS011;35901;48.694;9.476;2023-05-07T01:57:44;5.83;;;5.33;;
50012;SDS011;35901;48.694;9.476;2023-05-07T02:00:10;5.20;;;4.77;;
50012;SDS011;35901;48.694;9.476;2023-05-07T02:02:42;6.70;;;5.17;;
50012;SDS011;35901;48.694;9.476;2023-05-07T02:05:17;5.20;;;4.67;;
50012;SDS011;35901;48.694;9.476;2023-05-07T02:07:46;5.10;;;4.70;;
50012;SDS011;35901;48.694;9.476;2023-05-07T02:10:12;4.93;;;4.37;;
50012;SDS011;35901;48.694;9.476;2023-05-07T02:12:38;5.50;;;5.00;;
50012;SDS011;35901;48.694;9.476;2023-05-07T02:15:04;5.70;;;5.10;;
50012;SDS011;35901;48.694;9.476;2023-05-07T02:17:30;6.20;;;4.90;;
50012;SDS011;35901;48.694;9.476;2023-05-07T02:19:58;5.30;;;4.80;;
50012;SDS011;35901;48.694;9.476;2023-05-07T02:22:24;5.00;;;4.60;;
50012;SDS011;35901;48.694;9.476;2023-05-07T02:24:50;5.30;;;4.87;;
50012;SDS011;35901;48.694;9.476;2023-05-07T02:27:15;5.00;;;4.60;;
50012;SDS011;35901;48.694;9.476;2023-05-07T02:29:43;6.10;;;5.60;;
50012;SDS011;35901;48.694;9.476;2023-05-07T02:32:08;6.13;;;4.47;;
50012;SDS011;35901;48.694;9.476;2023-05-07T02:34:34;4.83;;;4.27;;
50012;SDS011;35901;48.694;9.476;2023-05-07T02:37:00;4.73;;;4.33;;
50012;SDS011;35901;48.694;9.476;2023-05-07T02:39:26;4.67;;;4.27;;
50012;SDS011;35901;48.694;9.476;2023-05-07T02:41:51;4.50;;;4.10;;
50012;SDS011;35901;48.694;9.476;2023-05-07T02:44:17;4.70;;;4.30;;
50012;SDS011;35901;48.694;9.476;2023-05-07T02:46:45;4.70;;;4.30;;
50012;SDS011;35901;48.694;9.476;2023-05-07T02:49:11;5.93;;;4.53;;
50012;SDS011;35901;48.694;9.476;2023-05-07T02:51:37;5.50;;;5.03;;
50012;SDS011;35901;48.694;9.476;2023-05-07T02:54:08;4.60;;;4.20;;
50012;SDS011;35901;48.694;9.476;2023-05-07T02:56:34;5.20;;;4.77;;
50012;SDS011;35901;48.694;9.476;2023-05-07T02:58:59;5.77;;;5.27;;
50012;SDS011;35901;48.694;9.476;2023-05-07T03:01:29;4.87;;;4.47;;
50012;SDS011;35901;48.694;9.476;2023-05-07T03:04:06;5.20;;;4.80;;
50012;SDS011;35901;48.694;9.476;2023-05-07T03:06:32;5.90;;;5.40;;
50012;SDS011;35901;48.694;9.476;2023-05-07T03:08:57;7.10;;;6.40;;
50012;SDS011;35901;48.694;9.476;2023-05-07T03:11:23;6.03;;;5.43;;
50012;SDS011;35901;48.694;9.476;2023-05-07T03:13:49;6.47;;;5.83;;
50012;SDS011;35901;48.694;9.476;2023-05-07T03:16:17;9.43;;;6.07;;
50012;SDS011;35901;48.694;9.476;2023-05-07T03:18:42;7.97;;;6.93;;
50012;SDS011;35901;48.694;9.476;2023-05-07T03:21:08;9.07;;;7.63;;
50012;SDS011;35901;48.694;9.476;2023-05-07T03:23:34;8.90;;;8.10;;
50012;SDS011;35901;48.694;9.476;2023-05-07T03:26:00;8.13;;;7.03;;
50012;SDS011;35901;48.694;9.476;2023-05-07T03:28:25;7.03;;;6.40;;
50012;SDS011;35901;48.694;9.476;2023-05-07T03:30:56;6.00;;;5.50;;
50012;SDS011;35901;48.694;9.476;2023-05-07T03:33:22;6.13;;;5.63;;
50012;SDS011;35901;48.694;9.476;2023-05-07T03:35:48;6.13;;;5.37;;
50012;SDS011;35901;48.694;9.476;2023-05-07T03:38:19;6.40;;;5.80;;
50012;SDS011;35901;48.694;9.476;2023-05-07T03:40:45;7.23;;;5.27;;
50012;SDS011;35901;48.694;9.476;2023-05-07T03:43:11;6.33;;;5.73;;
50012;SDS011;35901;48.694;9.476;2023-05-07T03:45:40;6.03;;;5.43;;
50012;SDS011;35901;48.694;9.476;2023-05-07T03:48:14;6.07;;;5.40;;
50012;SDS011;35901;48.694;9.476;2023-05-07T03:50:40;7.23;;;5.67;;
50012;SDS011;35901;48.694;9.476;2023-05-07T03:53:06;6.80;;;5.63;;
50012;SDS011;35901;48.694;9.476;2023-05-07T03:55:36;6.80;;;6.20;;
50012;SDS011;35901;48.694;9.476;2023-05-07T03:58:02;6.90;;;6.27;;
50012;SDS011;35901;48.694;9.476;2023-05-07T04:00:28;7.43;;;6.27;;
50012;SDS011;35901;48.694;9.476;2023-05-07T04:02:57;7.00;;;6.40;;
50012;SDS011;35901;48.694;9.476;2023-05-07T04:05:25;6.20;;;5.63;;
50012;SDS011;35901;48.694;9.476;2023-05-07T04:08:00;6.77;;;6.07;;
50012;SDS011;35901;48.694;9.476;2023-05-07T04:10:33;6.23;;;5.63;;
50012;SDS011;35901;48.694;9.476;2023-05-07T04:13:03;6.13;;;5.53;;
50012;SDS011;35901;48.694;9.476;2023-05-07T04:15:29;6.17;;;5.67;;
50012;SDS011;35901;48.694;9.476;2023-05-07T04:17:55;6.30;;;5.77;;
50012;SDS011;35901;48.694;9.476;2023-05-07T04:20:23;8.80;;;6.27;;
50012;SDS011;35901;48.694;9.476;2023-05-07T04:22:55;6.00;;;5.50;;
50012;SDS011;35901;48.694;9.476;2023-05-07T04:25:21;5.80;;;5.30;;
50012;SDS011;35901;48.694;9.476;2023-05-07T04:27:48;6.27;;;5.60;;
50012;SDS011;35901;48.694;9.476;2023-05-07T04:30:14;6.10;;;5.50;;
50012;SDS011;35901;48.694;9.476;2023-05-07T04:32:40;5.33;;;4.93;;
50012;SDS011;35901;48.694;9.476;2023-05-07T04:35:06;5.07;;;4.57;;
50012;SDS011;35901;48.694;9.476;2023-05-07T04:37:33;4.50;;;4.20;;
50012;SDS011;35901;48.694;9.476;2023-05-07T04:39:59;5.10;;;4.70;;
50012;SDS011;35901;48.694;9.476;2023-05-07T04:42:25;5.90;;;5.30;;
50012;SDS011;35901;48.694;9.476;2023-05-07T04:44:52;5.00;;;4.00;;
50012;SDS011;35901;48.694;9.476;2023-05-07T04:47:18;4.70;;;4.30;;
50012;SDS011;35901;48.694;9.476;2023-05-07T04:49:44;5.07;;;4.20;;
50012;SDS011;35901;48.694;9.476;2023-05-07T04:52:11;6.43;;;4.47;;
50012;SDS011;35901;48.694;9.476;2023-05-07T04:54:37;4.30;;;4.00;;
50012;SDS011;35901;48.694;9.476;2023-05-07T04:57:03;4.60;;;4.20;;
50012;SDS011;35901;48.694;9.476;2023-05-07T04:59:29;4.43;;;4.03;;
50012;SDS011;35901;48.694;9.476;2023-05-07T05:01:55;5.10;;;4.23;;
50012;SDS011;35901;48.694;9.476;2023-05-07T05:04:21;4.17;;;3.77;;
50012;SDS011;35901;48.694;9.476;2023-05-07T05:06:47;4.30;;;3.90;;
50012;SDS011;35901;48.694;9.476;2023-05-07T05:09:13;4.10;;;3.70;;
50012;SDS011;35901;48.694;9.476;2023-05-07T05:11:40;3.67;;;3.43;;
50012;SDS011;35901;48.694;9.476;2023-05-07T05:14:06;3.80;;;3.50;;
50012;SDS011;35901;48.694;9.476;2023-05-07T05:16:32;3.83;;;3.50;;
50012;SDS011;35901;48.694;9.476;2023-05-07T05:18:58;4.33;;;3.50;;
50012;SDS011;35901;48.694;9.476;2023-05-07T05:21:24;4.27;;;3.87;;
50012;SDS011;35901;48.694;9.476;2023-05-07T05:23:54;3.43;;;3.13;;
50012;SDS011;35901;48.694;9.476;2023-05-07T05:26:22;3.57;;;3.27;;
50012;SDS011;35901;48.694;9.476;2023-05-07T05:28:48;3.37;;;3.00;;
50012;SDS011;35901;48.694;9.476;2023-05-07T05:31:16;3.07;;;2.87;;
50012;SDS011;35901;48.694;9.476;2023-05-07T05:33:42;2.67;;;2.53;;
50012;SDS011;35901;48.694;9.476;2023-05-07T05:36:10;2.30;;;2.10;;
50012;SDS011;35901;48.694;9.476;2023-05-07T05:38:37;2.40;;;2.30;;
50012;SDS011;35901;48.694;9.476;2023-05-07T05:41:04;2.37;;;2.23;;
50012;SDS011;35901;48.694;9.476;2023-05-07T05:43:30;2.43;;;2.23;;
50012;SDS011;35901;48.694;9.476;2023-05-07T05:45:57;2.20;;;2.07;;
50012;SDS011;35901;48.694;9.476;2023-05-07T05:48:23;2.30;;;2.10;;
50012;SDS011;35901;48.694;9.476;2023-05-07T05:50:48;2.93;;;2.30;;
50012;SDS011;35901;48.694;9.476;2023-05-07T05:53:17;2.43;;;2.07;;
50012;SDS011;35901;48.694;9.476;2023-05-07T05:55:43;2.30;;;2.10;;
50012;SDS011;35901;48.694;9.476;2023-05-07T05:58:10;2.27;;;2.17;;
50012;SDS011;35901;48.694;9.476;2023-05-07T06:00:40;1.80;;;1.70;;
50012;SDS011;35901;48.694;9.476;2023-05-07T06:03:06;2.07;;;1.80;;
50012;SDS011;35901;48.694;9.476;2023-05-07T06:05:33;2.07;;;1.97;;
50012;SDS011;35901;48.694;9.476;2023-05-07T06:07:58;2.00;;;1.83;;
50012;SDS011;35901;48.694;9.476;2023-05-07T06:10:29;2.70;;;2.10;;
50012;SDS011;35901;48.694;9.476;2023-05-07T06:12:55;2.00;;;1.80;;
50012;SDS011;35901;48.694;9.476;2023-05-07T06:15:21;2.50;;;2.00;;
50012;SDS011;35901;48.694;9.476;2023-05-07T06:17:47;2.00;;;1.90;;
50012;SDS011;35901;48.694;9.476;2023-05-07T06:20:14;2.23;;;2.03;;
50012;SDS011;35901;48.694;9.476;2023-05-07T06:22:40;2.60;;;2.10;;
50012;SDS011;35901;48.694;9.476;2023-05-07T06:25:07;2.43;;;2.20;;
50012;SDS011;35901;48.694;9.476;2023-05-07T06:27:33;2.27;;;2.10;;
50012;SDS011;35901;48.694;9.476;2023-05-07T06:29:59;2.37;;;2.10;;
50012;SDS011;35901;48.694;9.476;2023-05-07T06:32:25;2.70;;;2.10;;
50012;SDS011;35901;48.694;9.476;2023-05-07T06:34:51;2.50;;;2.00;;
50012;SDS011;35901;48.694;9.476;2023-05-07T06:37:17;1.87;;;1.77;;
50012;SDS011;35901;48.694;9.476;2023-05-07T06:39:50;1.97;;;1.87;;
50012;SDS011;35901;48.694;9.476;2023-05-07T06:42:15;1.93;;;1.83;;
50012;SDS011;35901;48.694;9.476;2023-05-07T06:44:45;2.13;;;1.90;;
50012;SDS011;35901;48.694;9.476;2023-05-07T06:47:13;2.30;;;2.10;;
50012;SDS011;35901;48.694;9.476;2023-05-07T06:49:39;2.27;;;1.80;;
50012;SDS011;35901;48.694;9.476;2023-05-07T06:52:05;2.17;;;1.70;;
50012;SDS011;35901;48.694;9.476;2023-05-07T06:54:31;1.97;;;1.83;;
50012;SDS011;35901;48.694;9.476;2023-05-07T06:56:57;1.80;;;1.70;;
50012;SDS011;35901;48.694;9.476;2023-05-07T06:59:25;2.13;;;1.77;;
50012;SDS011;35901;48.694;9.476;2023-05-07T07:01:51;2.50;;;2.30;;
50012;SDS011;35901;48.694;9.476;2023-05-07T07:04:17;2.47;;;2.30;;
50012;SDS011;35901;48.694;9.476;2023-05-07T07:06:48;2.20;;;2.10;;
50012;SDS011;35901;48.694;9.476;2023-05-07T07:09:13;2.80;;;2.60;;
50012;SDS011;35901;48.694;9.476;2023-05-07T07:11:40;2.43;;;2.20;;
50012;SDS011;35901;48.694;9.476;2023-05-07T07:14:06;2.50;;;2.30;;
50012;SDS011;35901;48.694;9.476;2023-05-07T07:16:36;3.70;;;2.43;;
50012;SDS011;35901;48.694;9.476;2023-05-07T07:19:02;2.67;;;2.47;;
50012;SDS011;35901;48.694;9.476;2023-05-07T07:21:28;2.40;;;2.20;;
50012;SDS011;35901;48.694;9.476;2023-05-07T07:23:53;2.33;;;2.10;;
50012;SDS011;35901;48.694;9.476;2023-05-07T07:26:20;3.40;;;2.53;;
50012;SDS011;35901;48.694;9.476;2023-05-07T07:28:47;2.23;;;2.10;;
50012;SDS011;35901;48.694;9.476;2023-05-07T07:31:16;2.50;;;2.30;;
50012;SDS011;35901;48.694;9.476;2023-05-07T07:33:42;2.40;;;2.20;;
50012;SDS011;35901;48.694;9.476;2023-05-07T07:36:08;2.53;;;2.33;;
50012;SDS011;35901;48.694;9.476;2023-05-07T07:38:34;2.27;;;2.10;;
50012;SDS011;35901;48.694;9.476;2023-05-07T07:41:01;2.87;;;2.23;;
50012;SDS011;35901;48.694;9.476;2023-05-07T07:43:27;2.53;;;2.20;;
50012;SDS011;35901;48.694;9.476;2023-05-07T07:45:53;2.60;;;2.40;;
50012;SDS011;35901;48.694;9.476;2023-05-07T07:48:19;2.43;;;2.00;;
50012;SDS011;35901;48.694;9.476;2023-05-07T07:50:48;2.70;;;2.40;;
50012;SDS011;35901;48.694;9.476;2023-05-07T07:53:15;2.17;;;2.00;;
50012;SDS011;35901;48.694;9.476;2023-05-07T07:55:42;2.43;;;2.23;;
50012;SDS011;35901;48.694;9.476;2023-05-07T07:58:10;2.60;;;2.40;;
50012;SDS011;35901;48.694;9.476;2023-05-07T08:00:36;2.07;;;1.97;;
50012;SDS011;35901;48.694;9.476;2023-05-07T08:03:02;2.50;;;2.10;;
50012;SDS011;35901;48.694;9.476;2023-05-07T08:05:32;2.90;;;2.70;;
50012;SDS011;35901;48.694;9.476;2023-05-07T08:07:59;2.03;;;1.93;;
50012;SDS011;35901;48.694;9.476;2023-05-07T08:10:30;2.30;;;2.20;;
50012;SDS011;35901;48.694;9.476;2023-05-07T08:13:02;3.63;;;3.00;;
50012;SDS011;35901;48.694;9.476;2023-05-07T08:15:30;3.17;;;2.97;;
50012;SDS011;35901;48.694;9.476;2023-05-07T08:17:56;2.83;;;2.50;;
50012;SDS011;35901;48.694;9.476;2023-05-07T08:20:23;3.10;;;2.83;;
50012;SDS011;35901;48.694;9.476;2023-05-07T08:22:49;3.10;;;2.90;;
50012;SDS011;35901;48.694;9.476;2023-05-07T08:25:17;3.77;;;2.90;;
50012;SDS011;35901;48.694;9.476;2023-05-07T08:27:42;2.93;;;2.60;;
50012;SDS011;35901;48.694;9.476;2023-05-07T08:30:10;4.17;;;2.90;;
50012;SDS011;35901;48.694;9.476;2023-05-07T08:32:36;2.80;;;2.60;;
50012;SDS011;35901;48.694;9.476;2023-05-07T08:35:02;2.37;;;2.17;;
50012;SDS011;35901;48.694;9.476;2023-05-07T08:37:28;3.47;;;2.50;;
50012;SDS011;35901;48.694;9.476;2023-05-07T08:39:54;2.43;;;2.27;;
50012;SDS011;35901;48.694;9.476;2023-05-07T08:42:23;2.70;;;2.50;;
50012;SDS011;35901;48.694;9.476;2023-05-07T08:44:50;2.67;;;2.47;;
50012;SDS011;35901;48.694;9.476;2023-05-07T08:47:22;2.50;;;2.40;;
50012;SDS011;35901;48.694;9.476;2023-05-07T08:49:53;2.90;;;2.40;;
50012;SDS011;35901;48.694;9.476;2023-05-07T08:52:20;2.83;;;2.63;;
50012;SDS011;35901;48.694;9.476;2023-05-07T08:54:46;3.30;;;2.23;;
50012;SDS011;35901;48.694;9.476;2023-05-07T08:57:12;2.70;;;2.30;;
50012;SDS011;35901;48.694;9.476;2023-05-07T08:59:39;2.67;;;2.47;;
50012;SDS011;35901;48.694;9.476;2023-05-07T09:02:06;2.60;;;2.40;;
50012;SDS011;35901;48.694;9.476;2023-05-07T09:04:34;2.03;;;1.93;;
50012;SDS011;35901;48.694;9.476;2023-05-07T09:07:01;3.17;;;2.17;;
50012;SDS011;35901;48.694;9.476;2023-05-07T09:09:32;2.00;;;1.90;;
50012;SDS011;35901;48.694;9.476;2023-05-07T09:11:59;1.90;;;1.70;;
50012;SDS011;35901;48.694;9.476;2023-05-07T09:14:26;2.40;;;2.20;;
50012;SDS011;35901;48.694;9.476;2023-05-07T09:16:53;2.17;;;2.07;;
50012;SDS011;35901;48.694;9.476;2023-05-07T09:19:25;4.40;;;2.13;;
50012;SDS011;35901;48.694;9.476;2023-05-07T09:22:00;3.30;;;2.27;;
50012;SDS011;35901;48.694;9.476;2023-05-07T09:24:30;2.30;;;2.10;;
50012;SDS011;35901;48.694;9.476;2023-05-07T09:27:01;1.90;;;1.80;;
50012;SDS011;35901;48.694;9.476;2023-05-07T09:29:28;3.10;;;2.17;;
50012;SDS011;35901;48.694;9.476;2023-05-07T09:31:55;2.30;;;2.10;;
50012;SDS011;35901;48.694;9.476;2023-05-07T09:34:21;2.17;;;1.97;;
50012;SDS011;35901;48.694;9.476;2023-05-07T09:36:47;2.07;;;1.90;;
50012;SDS011;35901;48.694;9.476;2023-05-07T09:39:13;1.53;;;1.43;;
50012;SDS011;35901;48.694;9.476;2023-05-07T09:41:43;2.67;;;1.90;;
50012;SDS011;35901;48.694;9.476;2023-05-07T09:44:15;1.80;;;1.70;;
50012;SDS011;35901;48.694;9.476;2023-05-07T09:46:46;1.70;;;1.60;;
50012;SDS011;35901;48.694;9.476;2023-05-07T09:49:21;2.40;;;1.90;;
50012;SDS011;35901;48.694;9.476;2023-05-07T09:51:52;1.87;;;1.63;;
50012;SDS011;35901;48.694;9.476;2023-05-07T09:54:20;1.70;;;1.60;;
50012;SDS011;35901;48.694;9.476;2023-05-07T09:56:49;2.13;;;1.60;;
50012;SDS011;35901;48.694;9.476;2023-05-07T09:59:18;2.13;;;1.80;;
50012;SDS011;35901;48.694;9.476;2023-05-07T10:01:47;3.30;;;1.70;;
50012;SDS011;35901;48.694;9.476;2023-05-07T10:04:14;2.40;;;1.80;;
50012;SDS011;35901;48.694;9.476;2023-05-07T10:06:43;3.20;;;1.87;;
50012;SDS011;35901;48.694;9.476;2023-05-07T10:09:10;1.97;;;1.87;;
50012;SDS011;35901;48.694;9.476;2023-05-07T10:11:37;2.20;;;1.80;;
50012;SDS011;35901;48.694;9.476;2023-05-07T10:14:04;1.70;;;1.60;;
50012;SDS011;35901;48.694;9.476;2023-05-07T10:16:34;1.67;;;1.57;;
50012;SDS011;35901;48.694;9.476;2023-05-07T10:19:04;2.03;;;1.92;;
50012;SDS011;35901;48.694;9.476;2023-05-07T10:21:34;1.98;;;1.80;;
50012;SDS011;35901;48.694;9.476;2023-05-07T10:24:08;1.90;;;1.70;;
50012;SDS011;35901;48.694;9.476;2023-05-07T10:26:44;1.70;;;1.60;;
50012;SDS011;35901;48.694;9.476;2023-05-07T10:34:39;1.90;;;1.80;;
50012;SDS011;35901;48.694;9.476;2023-05-07T10:37:09;2.13;;;1.87;;
50012;SDS011;35901;48.694;9.476;2023-05-07T10:39:35;2.00;;;1.70;;
50012;SDS011;35901;48.694;9.476;2023-05-07T10:42:12;1.90;;;1.80;;
50012;SDS011;35901;48.694;9.476;2023-05-07T10:44:45;2.30;;;1.93;;
50012;SDS011;35901;48.694;9.476;2023-05-07T10:47:16;2.33;;;1.87;;
50012;SDS011;35901;48.694;9.476;2023-05-07T10:52:20;1.80;;;1.67;;
50012;SDS011;35901;48.694;9.476;2023-05-07T10:57:49;1.92;;;1.73;;
50012;SDS011;35901;48.694;9.476;2023-05-07T11:05:30;2.57;;;2.07;;
50012;SDS011;35901;48.694;9.476;2023-05-07T11:08:11;2.23;;;1.97;;
50012;SDS011;35901;48.694;9.476;2023-05-07T11:13:41;2.00;;;1.80;;
50012;SDS011;35901;48.694;9.476;2023-05-07T11:16:17;3.43;;;1.87;;
50012;SDS011;35901;48.694;9.476;2023-05-07T11:18:51;1.90;;;1.80;;
50012;SDS011;35901;48.694;9.476;2023-05-07T11:24:08;2.23;;;1.80;;
50012;SDS011;35901;48.694;9.476;2023-05-07T11:26:51;1.90;;;1.80;;
50012;SDS011;35901;48.694;9.476;2023-05-07T11:29:20;2.10;;;2.00;;
50012;SDS011;35901;48.694;9.476;2023-05-07T11:31:48;1.80;;;1.70;;
50012;SDS011;35901;48.694;9.476;2023-05-07T11:34:22;1.90;;;1.80;;
50012;SDS011;35901;48.694;9.476;2023-05-07T11:36:49;2.13;;;2.00;;
50012;SDS011;35901;48.694;9.476;2023-05-07T11:39:25;1.97;;;1.87;;
50012;SDS011;35901;48.694;9.476;2023-05-07T11:41:51;1.97;;;1.83;;
50012;SDS011;35901;48.694;9.476;2023-05-07T11:44:17;2.10;;;1.60;;
50012;SDS011;35901;48.694;9.476;2023-05-07T11:46:43;1.97;;;1.80;;
50012;SDS011;35901;48.694;9.476;2023-05-07T11:49:09;2.70;;;1.90;;
50012;SDS011;35901;48.694;9.476;2023-05-07T11:51:35;2.00;;;1.57;;
50012;SDS011;35901;48.694;9.476;2023-05-07T11:54:03;2.30;;;1.80;;
50012;SDS011;35901;48.694;9.476;2023-05-07T11:56:29;1.70;;;1.60;;
50012;SDS011;35901;48.694;9.476;2023-05-07T11:58:58;1.80;;;1.70;;
50012;SDS011;35901;48.694;9.476;2023-05-07T12:01:24;1.67;;;1.57;;
50012;SDS011;35901;48.694;9.476;2023-05-07T12:03:50;1.90;;;1.80;;
50012;SDS011;35901;48.694;9.476;2023-05-07T12:06:16;1.70;;;1.60;;
50012;SDS011;35901;48.694;9.476;2023-05-07T12:08:42;2.03;;;1.83;;
50012;SDS011;35901;48.694;9.476;2023-05-07T12:11:10;1.70;;;1.57;;
50012;SDS011;35901;48.694;9.476;2023-05-07T12:13:39;2.00;;;1.80;;
50012;SDS011;35901;48.694;9.476;2023-05-07T12:16:06;2.20;;;1.80;;
50012;SDS011;35901;48.694;9.476;2023-05-07T12:18:33;1.70;;;1.60;;
50012;SDS011;35901;48.694;9.476;2023-05-07T12:21:00;2.00;;;1.83;;
50012;SDS011;35901;48.694;9.476;2023-05-07T12:23:26;3.10;;;1.83;;
50012;SDS011;35901;48.694;9.476;2023-05-07T12:25:53;2.20;;;1.50;;
50012;SDS011;35901;48.694;9.476;2023-05-07T12:28:19;1.83;;;1.70;;
50012;SDS011;35901;48.694;9.476;2023-05-07T12:30:46;1.60;;;1.50;;
50012;SDS011;35901;48.694;9.476;2023-05-07T12:33:17;1.80;;;1.70;;
50012;SDS011;35901;48.694;9.476;2023-05-07T12:35:44;6.13;;;1.90;;
50012;SDS011;35901;48.694;9.476;2023-05-07T12:38:10;2.07;;;1.97;;
50012;SDS011;35901;48.694;9.476;2023-05-07T12:40:39;2.03;;;1.93;;
50012;SDS011;35901;48.694;9.476;2023-05-07T12:43:21;2.07;;;1.87;;
50012;SDS011;35901;48.694;9.476;2023-05-07T12:45:50;1.87;;;1.77;;
50012;SDS011;35901;48.694;9.476;2023-05-07T12:48:18;2.80;;;1.77;;
50012;SDS011;35901;48.694;9.476;2023-05-07T12:50:45;3.30;;;1.80;;
50012;SDS011;35901;48.694;9.476;2023-05-07T12:53:14;1.97;;;1.83;;
50012;SDS011;35901;48.694;9.476;2023-05-07T12:55:43;1.93;;;1.73;;
50012;SDS011;35901;48.694;9.476;2023-05-07T12:58:14;3.20;;;1.70;;
50012;SDS011;35901;48.694;9.476;2023-05-07T13:00:42;1.83;;;1.50;;
50012;SDS011;35901;48.694;9.476;2023-05-07T13:03:08;1.40;;;1.30;;
50012;SDS011;35901;48.694;9.476;2023-05-07T13:05:35;1.63;;;1.53;;
50012;SDS011;35901;48.694;9.476;2023-05-07T13:08:00;1.90;;;1.80;;
50012;SDS011;35901;48.694;9.476;2023-05-07T13:10:26;3.63;;;1.93;;
50012;SDS011;35901;48.694;9.476;2023-05-07T13:12:52;1.50;;;1.40;;
50012;SDS011;35901;48.694;9.476;2023-05-07T13:15:18;2.40;;;1.50;;
50012;SDS011;35901;48.694;9.476;2023-05-07T13:17:44;2.27;;;1.87;;
50012;SDS011;35901;48.694;9.476;2023-05-07T13:20:10;1.60;;;1.50;;
50012;SDS011;35901;48.694;9.476;2023-05-07T13:22:37;1.40;;;1.30;;
50012;SDS011;35901;48.694;9.476;2023-05-07T13:25:04;1.50;;;1.40;;
50012;SDS011;35901;48.694;9.476;2023-05-07T13:27:31;1.50;;;1.40;;
50012;SDS011;35901;48.694;9.476;2023-05-07T13:29:57;1.47;;;1.37;;
50012;SDS011;35901;48.694;9.476;2023-05-07T13:32:22;1.63;;;1.53;;
50012;SDS011;35901;48.694;9.476;2023-05-07T13:34:48;1.53;;;1.43;;
50012;SDS011;35901;48.694;9.476;2023-05-07T13:37:14;2.43;;;1.70;;
50012;SDS011;35901;48.694;9.476;2023-05-07T13:39:39;1.57;;;1.47;;
50012;SDS011;35901;48.694;9.476;2023-05-07T13:42:06;1.90;;;1.80;;
50012;SDS011;35901;48.694;9.476;2023-05-07T13:44:32;1.93;;;1.70;;
50012;SDS011;35901;48.694;9.476;2023-05-07T13:46:58;2.87;;;1.70;;
50012;SDS011;35901;48.694;9.476;2023-05-07T13:49:23;3.13;;;1.97;;
50012;SDS011;35901;48.694;9.476;2023-05-07T13:51:49;1.60;;;1.50;;
50012;SDS011;35901;48.694;9.476;2023-05-07T13:54:15;2.33;;;1.90;;
50012;SDS011;35901;48.694;9.476;2023-05-07T13:56:41;3.23;;;1.80;;
50012;SDS011;35901;48.694;9.476;2023-05-07T13:59:07;3.10;;;2.10;;
50012;SDS011;35901;48.694;9.476;2023-05-07T14:01:33;2.30;;;2.10;;
50012;SDS011;35901;48.694;9.476;2023-05-07T14:03:58;2.43;;;2.00;;
50012;SDS011;35901;48.694;9.476;2023-05-07T14:06:24;2.40;;;2.10;;
50012;SDS011;35901;48.694;9.476;2023-05-07T14:08:50;3.20;;;2.33;;
50012;SDS011;35901;48.694;9.476;2023-05-07T14:11:16;2.43;;;2.20;;
50012;SDS011;35901;48.694;9.476;2023-05-07T14:13:42;2.00;;;1.90;;
50012;SDS011;35901;48.694;9.476;2023-05-07T14:16:08;2.70;;;2.20;;
50012;SDS011;35901;48.694;9.476;2023-05-07T14:18:33;3.17;;;2.00;;
50012;SDS011;35901;48.694;9.476;2023-05-07T14:21:00;4.13;;;2.00;;
50012;SDS011;35901;48.694;9.476;2023-05-07T14:23:26;2.30;;;2.10;;
50012;SDS011;35901;48.694;9.476;2023-05-07T14:25:54;2.47;;;2.10;;
50012;SDS011;35901;48.694;9.476;2023-05-07T14:28:22;2.93;;;2.23;;
50012;SDS011;35901;48.694;9.476;2023-05-07T14:30:48;2.60;;;2.20;;
50012;SDS011;35901;48.694;9.476;2023-05-07T14:33:14;2.70;;;2.20;;
50012;SDS011;35901;48.694;9.476;2023-05-07T14:35:39;3.07;;;2.00;;
50012;SDS011;35901;48.694;9.476;2023-05-07T14:38:05;4.00;;;2.20;;
50012;SDS011;35901;48.694;9.476;2023-05-07T14:40:31;2.77;;;2.20;;
50012;SDS011;35901;48.694;9.476;2023-05-07T14:42:57;2.60;;;2.30;;
50012;SDS011;35901;48.694;9.476;2023-05-07T14:45:23;3.90;;;2.67;;
50012;SDS011;35901;48.694;9.476;2023-05-07T14:47:48;3.80;;;2.17;;
50012;SDS011;35901;48.694;9.476;2023-05-07T14:50:14;2.17;;;1.97;;
50012;SDS011;35901;48.694;9.476;2023-05-07T14:52:40;2.27;;;2.13;;
50012;SDS011;35901;48.694;9.476;2023-05-07T14:55:06;2.00;;;1.90;;
50012;SDS011;35901;48.694;9.476;2023-05-07T14:57:32;2.83;;;2.03;;
50012;SDS011;35901;48.694;9.476;2023-05-07T15:00:03;2.50;;;2.17;;
50012;SDS011;35901;48.694;9.476;2023-05-07T15:02:29;2.60;;;2.40;;
50012;SDS011;35901;48.694;9.476;2023-05-07T15:04:55;5.40;;;3.13;;
50012;SDS011;35901;48.694;9.476;2023-05-07T15:07:21;4.07;;;2.83;;
50012;SDS011;35901;48.694;9.476;2023-05-07T15:09:47;3.10;;;2.90;;